Time;durP1;ratioP1;P1;durP2;ratioP2;P2;SDS_P1;SDS_P2;PMS_P1;PMS_P2;Temp;Humidity;BMP_temperature;BMP_pressure;BME280_temperature;BME280_humidity;BME280_pressure;Samples;Min_cycle;Max_cycle;Signal;HPM_P1;HPM_P2
2023/07/09 00:04:51;;;;;;;4.00;3.60;;;19.80;99.90;;;20.74;66.80;98240.06;10356553;28;20229;-65
2023/07/09 00:09:55;;;;;;;4.43;4.05;;;19.70;99.90;;;20.69;66.71;98247.75;10365774;28;20230;-65
2023/07/09 00:14:59;;;;;;;4.13;3.58;;;19.60;99.90;;;20.65;66.95;98251.09;10367071;28;20232;-65
2023/07/09 00:20:05;;;;;;;4.30;3.90;;;19.60;99.90;;;20.52;67.35;98254.25;10361187;28;20278;-65
2023/07/09 00:25:13;;;;;;;5.15;4.00;;;19.50;99.90;;;20.37;68.00;98265.09;10361104;28;20261;-64
2023/07/09 00:30:22;;;;;;;4.20;3.10;;;19.40;99.90;;;20.32;68.07;98258.06;10364765;28;20222;-65
2023/07/09 00:35:27;;;;;;;4.88;4.03;;;19.40;99.90;;;20.25;69.13;98259.63;10360727;28;20233;-66
2023/07/09 00:40:30;;;;;;;4.75;3.60;;;19.30;99.90;;;20.23;69.04;98267.38;10358426;28;20767;-65
2023/07/09 00:45:33;;;;;;;3.90;3.60;;;19.20;99.90;;;20.17;69.19;98261.13;10361490;28;20682;-65
2023/07/09 00:50:42;;;;;;;4.40;3.75;;;19.20;99.90;;;20.08;69.69;98266.97;10361316;28;20232;-65
2023/07/09 00:55:52;;;;;;;4.35;3.72;;;19.10;99.90;;;20.07;70.39;98277.31;10359129;28;20226;-65
2023/07/09 01:01:02;;;;;;;5.35;4.10;;;19.10;99.90;;;19.96;70.82;98277.03;10357654;28;20317;-65
2023/07/09 01:06:06;;;;;;;5.18;3.83;;;19.00;99.90;;;19.88;71.47;98278.53;10355818;28;20238;-65
2023/07/09 01:11:21;;;;;;;5.32;4.57;;;18.90;99.90;;;19.73;71.62;98279.00;10362198;28;20597;-65
2023/07/09 01:16:29;;;;;;;4.53;3.95;;;18.70;99.90;;;19.50;71.63;98279.19;10358634;28;20289;-65
2023/07/09 01:21:33;;;;;;;4.60;4.20;;;18.60;99.90;;;19.56;71.74;98283.69;10361587;28;20304;-65
2023/07/09 01:26:38;;;;;;;4.10;3.70;;;18.60;99.90;;;19.49;72.62;98284.38;10361658;28;20734;-65
2023/07/09 01:31:41;;;;;;;4.22;3.65;;;18.60;99.90;;;19.54;72.99;98277.56;10361664;28;20730;-65
2023/07/09 01:36:46;;;;;;;4.57;4.10;;;18.60;99.90;;;19.56;72.76;98281.09;10359105;28;20729;-65
2023/07/09 01:41:49;;;;;;;4.30;3.90;;;18.60;99.90;;;19.58;73.09;98284.63;10354548;28;20611;-65
2023/07/09 01:46:53;;;;;;;4.78;4.10;;;18.60;99.90;;;19.63;73.04;98280.44;10361097;28;20690;-65
2023/07/09 01:51:58;;;;;;;4.40;4.00;;;18.60;99.90;;;19.49;73.97;98279.19;10358783;28;20956;-65
2023/07/09 01:57:19;;;;;;;4.55;4.15;;;18.50;99.90;;;19.45;73.59;98282.50;10358661;28;20219;-65
2023/07/09 02:02:23;;;;;;;4.57;3.90;;;18.50;99.90;;;19.35;74.70;98282.25;10359684;28;20238;-65
2023/07/09 02:07:28;;;;;;;4.38;3.97;;;18.40;99.90;;;19.24;75.05;98295.72;10359127;28;20223;-65
2023/07/09 02:12:31;;;;;;;4.30;3.90;;;18.20;99.90;;;19.09;75.48;98283.19;10359995;28;20249;-65
2023/07/09 02:17:34;;;;;;;4.70;4.03;;;18.10;99.90;;;18.95;76.39;98285.34;10360356;28;20675;-65
2023/07/09 02:22:40;;;;;;;7.05;4.70;;;18.00;99.90;;;18.85;76.05;98286.75;10353566;28;20664;-65
2023/07/09 02:27:43;;;;;;;4.43;4.03;;;18.00;99.90;;;18.96;75.51;98286.22;10360835;28;20233;-65
2023/07/09 02:32:46;;;;;;;4.30;4.00;;;18.00;99.90;;;19.00;76.33;98293.25;10359117;28;20228;-65
2023/07/09 02:37:51;;;;;;;4.18;3.88;;;18.10;99.90;;;19.03;76.59;98295.94;10354972;28;20322;-65
2023/07/09 02:42:55;;;;;;;4.90;4.38;;;18.10;99.90;;;18.98;76.30;98293.22;10355331;28;20246;-66
2023/07/09 02:47:58;;;;;;;4.22;3.83;;;18.00;99.90;;;18.90;76.53;98295.56;10356252;28;20729;-65
2023/07/09 02:53:03;;;;;;;4.55;4.15;;;17.90;99.90;;;18.84;76.94;98297.09;10352990;28;20292;-66
2023/07/09 02:58:06;;;;;;;3.97;3.58;;;17.90;99.90;;;18.80;77.31;98306.47;10360585;28;20321;-65
2023/07/09 03:03:09;;;;;;;4.75;4.28;;;17.90;99.90;;;18.84;77.57;98310.03;10357753;28;20257;-66
2023/07/09 03:08:14;;;;;;;5.47;4.18;;;17.90;99.90;;;18.83;77.20;98305.69;10359699;28;20650;-65
2023/07/09 03:13:17;;;;;;;4.78;4.38;;;17.80;99.90;;;18.73;77.69;98320.00;10357098;28;20234;-66
2023/07/09 03:18:20;;;;;;;4.25;3.95;;;17.80;99.90;;;18.68;77.62;98321.56;10357160;28;20357;-65
2023/07/09 03:23:25;;;;;;;5.65;4.70;;;17.70;99.90;;;18.64;77.88;98317.13;10352572;28;20234;-66
2023/07/09 03:28:29;;;;;;;5.22;4.40;;;17.60;99.90;;;18.56;78.66;98316.00;10356885;28;20302;-66
2023/07/09 03:33:32;;;;;;;4.68;4.25;;;17.50;99.90;;;18.44;78.71;98319.06;10358201;28;20236;-66
2023/07/09 03:38:37;;;;;;;6.47;4.60;;;17.40;99.90;;;18.36;79.70;98323.09;10356082;28;20218;-66
2023/07/09 03:43:40;;;;;;;5.10;4.45;;;17.40;99.90;;;18.34;79.26;98330.81;10356435;28;20248;-66
2023/07/09 03:48:43;;;;;;;5.50;4.97;;;17.40;99.90;;;18.33;79.59;98334.22;10356076;28;20222;-66
2023/07/09 03:53:48;;;;;;;4.53;4.13;;;17.40;99.90;;;18.30;79.67;98334.13;10356096;28;20234;-66
2023/07/09 03:58:51;;;;;;;5.05;4.55;;;17.40;99.90;;;18.27;80.53;98334.03;10357476;28;20240;-65
2023/07/09 04:03:54;;;;;;;5.05;4.65;;;17.40;99.90;;;18.33;80.93;98339.41;10355522;28;20573;-65
2023/07/09 04:08:59;;;;;;;5.32;4.82;;;17.50;99.90;;;18.43;80.43;98333.72;10348182;28;20312;-66
2023/07/09 04:14:02;;;;;;;5.25;4.75;;;17.50;99.90;;;18.65;78.88;98331.81;10356457;28;20234;-66
2023/07/09 04:19:05;;;;;;;5.50;5.00;;;17.80;99.90;;;18.65;79.36;98337.00;10336193;28;20228;-66
2023/07/09 04:24:10;;;;;;;5.00;4.50;;;17.80;99.90;;;18.61;79.49;98335.16;10349689;28;20249;-66
2023/07/09 04:29:13;;;;;;;5.82;5.13;;;17.80;99.90;;;18.68;79.38;98338.00;10354519;28;20226;-66
2023/07/09 04:34:16;;;;;;;6.43;5.03;;;17.90;99.90;;;18.86;78.87;98334.28;10356567;28;20226;-66
2023/07/09 04:39:21;;;;;;;5.45;4.95;;;18.10;99.90;;;19.06;77.91;98334.91;10361131;28;20230;-66
2023/07/09 04:44:24;;;;;;;5.65;4.88;;;18.20;99.90;;;19.23;77.15;98344.09;10361790;28;20718;-66
2023/07/09 04:49:28;;;;;;;5.82;4.68;;;18.20;99.90;;;19.44;76.11;98348.16;10365231;28;20309;-66
2023/07/09 04:54:32;;;;;;;5.18;4.40;;;18.30;99.90;;;19.89;74.44;98352.97;10357132;28;20266;-66
2023/07/09 04:59:35;;;;;;;5.35;4.70;;;18.70;99.90;;;20.63;71.39;98341.13;10354151;28;20226;-65
2023/07/09 05:04:39;;;;;;;5.63;5.13;;;19.30;99.90;;;21.77;66.72;98348.94;10351025;28;20236;-66
2023/07/09 05:09:43;;;;;;;6.30;5.20;;;20.70;99.90;;;22.77;61.33;98345.59;10351111;28;20748;-67
2023/07/09 05:14:47;;;;;;;5.65;4.82;;;21.60;99.90;;;23.50;58.36;98349.34;10347223;28;20419;-66
2023/07/09 05:19:50;;;;;;;4.72;4.32;;;22.50;99.90;;;24.43;54.58;98351.38;10352222;28;20675;-67
2023/07/09 05:24:54;;;;;;;5.00;4.53;;;23.10;98.70;;;25.15;52.37;98339.81;10350865;28;20241;-67
2023/07/09 05:29:58;;;;;;;5.20;4.70;;;23.60;97.30;;;25.94;49.80;98338.50;10360869;28;20582;-67
2023/07/09 05:35:01;;;;;;;5.28;4.82;;;23.90;96.40;;;26.39;48.79;98343.88;10352375;28;20848;-67
2023/07/09 05:40:10;;;;;;;5.28;4.82;;;24.20;95.70;;;26.72;48.30;98343.03;10358657;28;20230;-67
2023/07/09 05:45:13;;;;;;;5.47;5.03;;;24.40;95.10;;;26.80;47.15;98340.44;10360452;28;20789;-67
2023/07/09 05:50:16;;;;;;;5.30;4.80;;;24.80;93.60;;;26.93;47.31;98345.69;10347028;28;20860;-67
2023/07/09 05:55:21;;;;;;;4.57;4.18;;;24.90;93.90;;;27.48;46.26;98339.50;10354936;28;20237;-67
2023/07/09 06:00:24;;;;;;;5.13;4.63;;;25.60;93.00;;;28.36;44.40;98344.38;10350160;28;20240;-67
2023/07/09 06:05:29;;;;;;;4.50;4.10;;;26.30;91.50;;;28.80;43.05;98333.56;10348378;28;20234;-67
2023/07/09 06:10:33;;;;;;;4.82;4.32;;;26.50;91.10;;;29.07;42.61;98337.72;10350871;28;20292;-68
2023/07/09 06:15:36;;;;;;;4.55;4.13;;;26.70;90.10;;;29.74;40.79;98340.59;10348020;28;20252;-67
2023/07/09 06:20:40;;;;;;;4.45;4.05;;;26.90;89.80;;;30.13;40.17;98338.31;10349349;28;20230;-67
2023/07/09 06:25:47;;;;;;;4.90;4.40;;;27.20;89.10;;;30.16;40.75;98338.25;10351222;28;20611;-67
2023/07/09 06:30:51;;;;;;;5.00;4.50;;;27.30;87.90;;;30.95;38.10;98342.38;10347520;28;20233;-67
2023/07/09 06:35:56;;;;;;;4.63;4.22;;;27.90;85.30;;;31.36;37.65;98346.13;10356313;28;20706;-67
2023/07/09 06:41:01;;;;;;;4.90;4.32;;;28.30;84.20;;;31.80;36.92;98347.00;10353610;28;20257;-67
2023/07/09 06:46:06;;;;;;;5.93;4.50;;;28.90;82.50;;;32.55;35.14;98347.19;10359573;28;20249;-67
2023/07/09 06:51:13;;;;;;;4.68;4.28;;;29.30;80.10;;;32.75;34.63;98350.22;10362305;28;20240;-67
2023/07/09 06:56:17;;;;;;;4.85;4.40;;;29.60;79.00;;;32.97;33.94;98347.06;10357885;28;20226;-67
2023/07/09 07:01:21;;;;;;;4.22;3.92;;;30.00;77.20;;;33.32;33.25;98354.09;10351749;28;20237;-67
2023/07/09 07:06:25;;;;;;;5.03;4.53;;;30.50;76.70;;;33.99;32.11;98354.00;10350636;28;20230;-67
2023/07/09 07:11:30;;;;;;;4.40;4.03;;;31.10;73.80;;;34.19;31.87;98347.28;10344095;28;20612;-66
2023/07/09 07:16:33;;;;;;;4.70;4.20;;;31.70;71.60;;;34.45;31.54;98350.00;10349130;28;20611;-66
2023/07/09 07:21:36;;;;;;;4.97;4.30;;;31.90;71.60;;;34.35;32.83;98343.25;10351633;28;20588;-67
2023/07/09 07:26:41;;;;;;;5.05;3.95;;;32.20;72.30;;;34.99;31.26;98340.31;10353717;28;20721;-67
2023/07/09 07:31:44;;;;;;;5.20;4.70;;;32.90;69.30;;;35.26;31.37;98343.84;10349565;28;20232;-67
2023/07/09 07:36:50;;;;;;;4.30;3.92;;;32.80;69.80;;;35.06;31.78;98335.69;10332909;28;20249;-67
2023/07/09 07:41:55;;;;;;;5.60;4.38;;;33.10;69.90;;;35.80;30.51;98323.28;10348128;28;20446;-68
2023/07/09 07:46:58;;;;;;;4.72;4.25;;;33.80;67.10;;;36.46;29.10;98323.44;10352171;28;20232;-66
2023/07/09 07:52:03;;;;;;;4.63;4.07;;;34.50;64.10;;;37.05;27.31;98322.81;10353268;28;20230;-66
2023/07/09 07:57:09;;;;;;;5.60;3.97;;;34.70;63.20;;;37.28;27.56;98318.28;10339400;28;20650;-66
2023/07/09 08:02:14;;;;;;;4.60;3.75;;;34.70;63.40;;;37.43;27.55;98313.16;10347082;28;20699;-66
2023/07/09 08:07:19;;;;;;;5.18;4.43;;;34.70;62.60;;;37.98;27.12;98314.28;10345762;28;20225;-66
2023/07/09 08:12:24;;;;;;;5.70;4.35;;;35.30;62.50;;;38.34;26.58;98305.44;10344701;28;20245;-67
2023/07/09 08:17:27;;;;;;;4.55;3.97;;;35.40;61.50;;;38.17;25.82;98308.94;10364616;28;20237;-66
2023/07/09 08:22:30;;;;;;;4.57;4.18;;;35.40;61.10;;;38.95;25.52;98308.69;10358328;28;20249;-66
2023/07/09 08:27:35;;;;;;;5.38;4.15;;;35.90;59.90;;;37.86;26.67;98311.22;10361949;28;20248;-66
2023/07/09 08:32:38;;;;;;;5.15;3.95;;;36.00;59.80;;;37.70;27.31;98302.19;10359488;28;20225;-66
2023/07/09 08:37:41;;;;;;;4.75;4.28;;;35.90;59.80;;;37.91;26.68;98297.63;10352570;28;20230;-65
2023/07/09 08:42:50;;;;;;;4.28;3.80;;;36.40;59.10;;;37.74;26.27;98297.56;10359605;28;20236;-65
2023/07/09 08:48:09;;;;;;;4.82;4.30;;;36.30;58.30;;;37.61;25.92;98303.47;10364400;28;20253;-65
2023/07/09 08:53:21;;;;;;;4.50;3.92;;;36.60;57.70;;;38.02;25.78;98298.03;10358147;28;20232;-66
2023/07/09 08:58:29;;;;;;;5.20;4.22;;;36.50;58.10;;;38.30;25.63;98299.41;10346482;28;20751;-66
2023/07/09 09:03:39;;;;;;;4.18;3.72;;;37.20;56.40;;;37.96;25.90;98300.13;10357619;28;20221;-66
2023/07/09 09:08:55;;;;;;;3.85;3.45;;;36.70;56.90;;;37.86;25.92;98295.22;10358012;28;20305;-66
2023/07/09 09:14:06;;;;;;;5.82;4.05;;;36.80;56.90;;;38.25;24.67;98298.75;10355906;28;20240;-66
2023/07/09 09:19:23;;;;;;;4.45;4.05;;;37.50;55.20;;;37.52;25.89;98290.56;10355700;28;20659;-66
2023/07/09 09:24:32;;;;;;;3.70;3.33;;;36.70;55.90;;;37.24;25.96;98295.34;10353324;28;20234;-66
2023/07/09 09:29:36;;;;;;;3.92;3.60;;;36.50;55.50;;;38.05;23.76;98297.88;10355325;28;20224;-66
2023/07/09 09:34:40;;;;;;;3.20;2.90;;;37.30;53.90;;;37.95;21.72;98293.94;10362125;28;20672;-66
2023/07/09 09:39:43;;;;;;;4.05;3.05;;;37.10;50.90;;;37.82;23.18;98295.41;10348584;28;20612;-66
2023/07/09 09:44:48;;;;;;;4.80;3.15;;;36.90;51.90;;;37.83;22.36;98287.34;10357125;28;20787;-66
2023/07/09 09:49:53;;;;;;;4.38;3.45;;;37.20;50.40;;;37.29;22.79;98285.31;10356471;28;20240;-66
2023/07/09 09:55:06;;;;;;;4.50;3.35;;;36.30;51.50;;;37.60;22.67;98291.06;10361226;28;20702;-66
2023/07/09 10:00:18;;;;;;;4.85;4.10;;;36.90;51.50;;;37.70;23.84;98282.63;10357628;28;20233;-66
2023/07/09 10:05:30;;;;;;;4.22;3.33;;;37.00;51.80;;;37.76;23.29;98285.03;10352784;28;20229;-66
2023/07/09 10:10:34;;;;;;;4.03;3.03;;;37.00;51.70;;;37.88;23.25;98292.44;10353263;28;20233;-66
2023/07/09 10:15:46;;;;;;;4.13;3.13;;;37.00;51.00;;;37.80;22.90;98289.25;10357211;28;20700;-66
2023/07/09 10:20:57;;;;;;;4.78;3.40;;;36.90;50.50;;;37.31;22.58;98275.47;10356134;28;20805;-66
2023/07/09 10:26:10;;;;;;;4.40;3.53;;;36.60;50.50;;;36.90;22.96;98265.66;10354447;28;20230;-66
2023/07/09 10:31:28;;;;;;;5.60;4.25;;;36.30;51.10;;;37.13;22.99;98256.69;10356976;28;20217;-66
2023/07/09 10:36:46;;;;;;;4.32;3.80;;;36.50;51.10;;;37.40;23.48;98259.94;10354729;28;20646;-66
2023/07/09 10:41:52;;;;;;;5.07;4.20;;;36.90;50.90;;;37.35;22.49;98261.94;10357680;28;20247;-66
2023/07/09 10:46:59;;;;;;;5.03;4.07;;;36.60;50.30;;;36.82;22.65;98261.59;10358614;28;20229;-66
2023/07/09 10:52:08;;;;;;;4.43;4.03;;;36.00;50.00;;;36.65;23.24;98252.50;10352818;28;20320;-67
2023/07/09 10:57:18;;;;;;;5.43;3.53;;;35.70;51.30;;;36.47;23.88;98242.59;10355884;28;20227;-66
2023/07/09 11:02:27;;;;;;;4.07;3.67;;;35.70;51.30;;;36.37;24.25;98230.56;10351251;28;20229;-66
2023/07/09 11:07:35;;;;;;;4.82;3.88;;;35.70;52.20;;;36.64;24.21;98229.47;10352204;28;20233;-66
2023/07/09 11:12:42;;;;;;;4.78;4.25;;;35.80;52.10;;;36.84;23.87;98231.28;10345777;28;20230;-66
2023/07/09 11:17:48;;;;;;;5.47;4.00;;;36.10;51.00;;;36.71;23.17;98233.59;10345084;28;20232;-66
2023/07/09 11:22:55;;;;;;;5.20;4.35;;;36.00;49.90;;;36.51;22.81;98221.06;10344795;28;20285;-66
2023/07/09 11:28:06;;;;;;;6.22;4.30;;;35.90;50.20;;;36.39;23.32;98210.09;10347298;28;20225;-66
2023/07/09 11:33:20;;;;;;;5.03;4.30;;;35.60;51.10;;;36.27;23.00;98220.31;10348394;28;20307;-66
2023/07/09 11:38:27;;;;;;;5.93;4.03;;;35.50;50.10;;;36.42;23.12;98224.13;10354621;28;20238;-67
2023/07/09 11:43:34;;;;;;;5.03;3.90;;;35.70;50.40;;;36.39;24.03;98207.41;10353568;28;20706;-68
2023/07/09 11:48:41;;;;;;;5.68;3.75;;;35.60;51.20;;;36.32;22.76;98209.47;10342657;28;20218;-67
2023/07/09 11:53:49;;;;;;;4.80;3.97;;;35.40;49.70;;;36.34;22.95;98204.06;10349169;28;20663;-67
2023/07/09 11:58:55;;;;;;;6.53;4.63;;;35.50;50.30;;;36.24;23.65;98187.63;10349997;28;20248;-67
2023/07/09 12:04:00;;;;;;;4.25;3.80;;;35.50;50.80;;;36.43;23.47;98185.03;10336456;28;20225;-67
2023/07/09 12:09:04;;;;;;;5.65;4.20;;;35.60;50.40;;;36.68;22.69;98191.09;10343169;28;20219;-67
2023/07/09 12:14:13;;;;;;;5.32;4.88;;;35.90;50.10;;;36.75;23.01;98192.56;10348617;28;20234;-67
2023/07/09 12:19:20;;;;;;;6.60;4.55;;;36.10;49.60;;;36.65;22.58;98196.53;10348431;28;20218;-67
2023/07/09 12:24:27;;;;;;;5.35;4.30;;;35.90;49.10;;;36.59;22.24;98186.16;10346483;28;20717;-67
2023/07/09 12:29:32;;;;;;;5.68;3.67;;;35.70;48.70;;;36.53;22.25;98189.09;10347331;28;20600;-67
2023/07/09 12:34:36;;;;;;;6.70;4.18;;;35.50;49.20;;;36.33;22.54;98173.06;10349197;28;20221;-67
2023/07/09 12:39:40;;;;;;;6.43;4.38;;;35.40;49.20;;;36.39;21.63;98175.47;10345114;28;20236;-67
2023/07/09 12:44:43;;;;;;;6.22;4.30;;;35.50;48.20;;;36.16;22.58;98165.78;10342799;28;20228;-67
2023/07/09 12:49:51;;;;;;;4.45;3.95;;;35.20;49.10;;;36.17;22.46;98156.84;10345804;28;20232;-67
2023/07/09 12:54:58;;;;;;;5.85;4.85;;;35.40;49.00;;;36.00;22.28;98166.38;10347024;28;20234;-67
2023/07/09 13:00:02;;;;;;;7.10;5.40;;;35.30;48.30;;;36.03;22.36;98157.41;10349782;28;20225;-67
2023/07/09 13:05:20;;;;;;;8.45;6.93;;;35.40;48.50;;;35.78;23.20;98153.06;10350161;28;20622;-67
2023/07/09 13:10:26;;;;;;;6.18;4.78;;;34.90;49.70;;;35.80;23.03;98159.22;10334394;28;20260;-67
2023/07/09 13:15:39;;;;;;;8.10;5.32;;;35.00;49.40;;;35.66;23.03;98137.59;10331012;28;20706;-68
2023/07/09 13:20:46;;;;;;;9.07;7.28;;;34.70;49.60;;;35.82;23.21;98127.19;10358993;28;20217;-66
2023/07/09 13:25:50;;;;;;;5.68;4.57;;;34.90;50.10;;;35.79;22.87;98122.00;10358014;28;20221;-67
2023/07/09 13:30:55;;;;;;;7.47;5.43;;;35.00;48.70;;;35.80;23.11;98121.97;10358926;28;20218;-67
2023/07/09 13:35:59;;;;;;;6.63;4.90;;;34.80;49.70;;;35.76;22.83;98115.00;10357084;28;20829;-66
2023/07/09 13:41:12;;;;;;;5.45;4.78;;;34.80;49.30;;;35.81;22.81;98121.00;10349763;28;20233;-66
2023/07/09 13:46:16;;;;;;;6.25;4.40;;;35.00;49.20;;;35.94;22.49;98123.16;10345711;28;20218;-66
2023/07/09 13:51:23;;;;;;;5.30;4.70;;;35.00;48.40;;;35.74;22.89;98110.69;10341298;28;20340;-67
2023/07/09 13:56:27;;;;;;;4.90;4.38;;;34.90;48.90;;;36.00;22.04;98118.47;10352924;28;20667;-66
2023/07/09 14:01:30;;;;;;;4.50;4.05;;;35.10;48.00;;;35.94;21.98;98120.50;10361870;28;20230;-66
2023/07/09 14:06:34;;;;;;;6.05;4.72;;;35.00;48.20;;;35.55;22.72;98105.22;10362036;28;20276;-66
2023/07/09 14:11:45;;;;;;;4.82;4.32;;;34.70;48.80;;;35.54;22.94;98096.38;10363024;28;20772;-68
2023/07/09 14:16:50;;;;;;;6.28;4.40;;;34.60;49.30;;;35.39;23.19;98089.84;10355281;28;20221;-68
2023/07/09 14:21:55;;;;;;;4.78;4.05;;;34.60;49.00;;;35.70;23.24;98099.28;10357072;28;20229;-68
2023/07/09 14:26:59;;;;;;;5.50;4.32;;;34.70;49.50;;;35.91;22.82;98091.34;10354132;28;20328;-68
2023/07/09 14:32:03;;;;;;;6.35;4.70;;;35.00;49.10;;;36.03;22.95;98081.06;10355225;28;20583;-70
2023/07/09 14:37:09;;;;;;;4.90;4.43;;;35.10;49.00;;;35.93;22.52;98074.41;10357300;28;20348;-68
2023/07/09 14:42:15;;;;;;;6.15;4.72;;;35.00;49.10;;;36.09;22.63;98078.19;10358028;28;20232;-68
2023/07/09 14:47:21;;;;;;;5.30;4.55;;;35.00;49.10;;;36.31;21.91;98074.56;10351125;28;20312;-68
2023/07/09 14:52:25;;;;;;;5.10;4.40;;;35.50;48.30;;;36.15;22.42;98069.06;10356215;28;20229;-68
2023/07/09 14:57:29;;;;;;;5.85;4.30;;;35.20;48.50;;;36.10;22.92;98063.06;10358742;28;20725;-68
2023/07/09 15:02:36;;;;;;;5.30;4.53;;;35.10;48.90;;;36.16;22.59;98057.47;10354418;28;20642;-68
2023/07/09 15:07:40;;;;;;;5.10;4.60;;;35.20;48.40;;;35.89;22.80;98055.97;10356992;28;20318;-68
2023/07/09 15:12:45;;;;;;;4.80;4.30;;;35.00;48.90;;;35.72;22.67;98052.22;10351261;28;20236;-68
2023/07/09 15:17:49;;;;;;;5.20;4.28;;;34.70;48.70;;;35.64;22.39;98062.31;10355073;28;20244;-68
2023/07/09 15:22:54;;;;;;;6.00;4.20;;;34.60;48.10;;;36.06;22.33;98062.34;10348683;28;20259;-68
2023/07/09 15:27:58;;;;;;;5.55;4.60;;;34.90;48.30;;;35.80;22.88;98052.78;10347777;28;20639;-68
2023/07/09 15:33:02;;;;;;;5.00;4.50;;;34.80;49.40;;;36.06;22.10;98053.50;10350809;28;20784;-68
2023/07/09 15:38:30;;;;;;;6.60;4.50;;;35.00;48.40;;;36.06;22.77;98053.50;10346841;28;20234;-68
2023/07/09 15:43:33;;;;;;;5.65;4.50;;;35.00;49.40;;;36.19;22.25;98060.00;10356494;28;20229;-68
2023/07/09 15:48:37;;;;;;;5.78;5.18;;;35.10;48.30;;;36.28;22.05;98059.59;10350489;28;20260;-68
2023/07/09 15:53:43;;;;;;;5.18;4.68;;;35.20;48.00;;;36.21;21.17;98047.50;10345406;28;20717;-68
2023/07/09 15:58:47;;;;;;;5.70;4.45;;;35.30;46.80;;;35.99;21.34;98051.97;10357171;28;20304;-68
2023/07/09 16:03:52;;;;;;;7.82;5.30;;;35.10;47.00;;;35.80;21.30;98050.13;10351354;28;20726;-68
2023/07/09 16:08:57;;;;;;;8.00;6.60;;;35.00;47.00;;;35.58;22.49;98051.94;10351955;28;20234;-68
2023/07/09 16:14:00;;;;;;;8.25;6.13;;;34.70;47.80;;;35.33;22.38;98046.69;10359324;28;20237;-68
2023/07/09 16:19:04;;;;;;;6.68;5.82;;;34.40;48.50;;;35.32;22.35;98044.97;10358302;28;20239;-68
2023/07/09 16:24:18;;;;;;;7.93;6.35;;;34.30;48.80;;;35.23;22.51;98040.88;10355517;28;20222;-69
2023/07/09 16:29:25;;;;;;;6.80;5.53;;;34.20;48.30;;;35.05;22.19;98039.78;10362291;28;20234;-68
2023/07/09 16:34:31;;;;;;;5.80;4.55;;;34.00;48.50;;;35.34;22.58;98044.00;10357944;28;20229;-68
2023/07/09 16:39:40;;;;;;;6.75;5.65;;;34.30;48.00;;;35.18;23.02;98042.84;10362272;28;20287;-68
2023/07/09 16:44:44;;;;;;;8.07;6.55;;;34.20;48.20;;;35.22;22.67;98039.13;10354093;28;20304;-68
2023/07/09 16:49:48;;;;;;;7.15;5.50;;;34.20;48.30;;;34.97;22.84;98034.75;10360349;28;20229;-68
2023/07/09 16:54:54;;;;;;;5.75;5.10;;;34.00;48.30;;;35.13;22.83;98037.72;10360686;28;20261;-68
2023/07/09 17:00:21;;;;;;;6.07;5.47;;;34.10;48.00;;;34.96;22.44;98037.47;10356891;28;20233;-68
2023/07/09 17:05:27;;;;;;;7.65;4.80;;;33.90;47.70;;;34.93;21.98;98038.44;10360809;28;20238;-68
2023/07/09 17:10:31;;;;;;;8.05;4.97;;;34.00;48.10;;;34.83;22.50;98036.22;10357365;28;20232;-67
2023/07/09 17:15:39;;;;;;;6.32;5.10;;;33.90;47.60;;;34.82;22.98;98027.34;10346653;28;20225;-67
2023/07/09 17:20:43;;;;;;;5.68;4.45;;;33.80;48.00;;;34.80;22.69;98026.56;10358403;28;20272;-67
2023/07/09 17:25:48;;;;;;;5.50;4.50;;;33.80;47.80;;;34.55;22.38;98037.25;10347891;28;20226;-67
2023/07/09 17:30:52;;;;;;;5.55;5.00;;;33.60;48.20;;;34.59;22.45;98027.38;10356064;28;20302;-67
2023/07/09 17:35:56;;;;;;;5.25;4.75;;;33.60;48.30;;;34.30;23.71;98034.56;10359257;28;20377;-67
2023/07/09 17:41:01;;;;;;;6.50;5.05;;;33.30;49.10;;;34.11;23.63;98036.13;10356199;28;20731;-68
2023/07/09 17:46:06;;;;;;;5.75;4.50;;;33.00;49.60;;;34.15;24.15;98022.72;10356275;28;20232;-67
2023/07/09 17:51:11;;;;;;;5.95;5.07;;;33.10;49.80;;;34.21;24.26;98017.19;10356794;28;20222;-69
2023/07/09 17:56:23;;;;;;;7.18;5.00;;;33.10;49.80;;;34.04;24.25;98012.47;10358193;28;20226;-68
2023/07/09 18:01:27;;;;;;;5.75;4.43;;;33.00;50.30;;;33.95;25.08;98007.47;10360235;28;20225;-68
2023/07/09 18:06:30;;;;;;;5.68;4.70;;;32.90;50.60;;;33.83;25.74;98016.72;10354195;28;20217;-68
2023/07/09 18:11:37;;;;;;;6.53;5.00;;;32.70;51.90;;;33.48;27.28;98020.53;10349195;28;20238;-67
2023/07/09 18:16:40;;;;;;;6.57;4.70;;;32.40;53.30;;;33.51;26.68;98020.41;10354377;28;20230;-68
2023/07/09 18:21:43;;;;;;;5.40;4.68;;;32.30;53.50;;;32.99;28.11;98024.69;10345107;28;20241;-68
2023/07/09 18:26:48;;;;;;;5.07;4.57;;;31.90;54.60;;;32.70;29.19;98029.06;10353456;28;20739;-68
2023/07/09 18:31:51;;;;;;;6.50;4.85;;;31.60;56.50;;;32.35;30.53;98031.81;10346335;28;20234;-68
2023/07/09 18:36:54;;;;;;;6.97;5.30;;;31.10;58.20;;;31.87;32.23;98039.19;10343881;28;20319;-68
2023/07/09 18:41:59;;;;;;;6.30;5.10;;;30.70;59.80;;;31.50;33.10;98044.53;10350326;28;20240;-68
2023/07/09 18:47:02;;;;;;;5.90;5.30;;;30.30;61.10;;;31.18;34.67;98039.97;10349491;28;20300;-68
2023/07/09 18:52:12;;;;;;;5.93;5.32;;;30.00;63.40;;;30.88;35.72;98039.75;10356174;28;20228;-69
2023/07/09 18:57:17;;;;;;;6.55;5.38;;;29.60;66.20;;;30.61;36.14;98043.78;10354575;28;20597;-68
2023/07/09 19:02:24;;;;;;;6.20;5.10;;;29.40;64.80;;;30.43;36.71;98047.69;10347486;28;20241;-68
2023/07/09 19:07:28;;;;;;;5.63;4.63;;;29.20;66.10;;;30.14;36.81;98039.44;10356043;28;20318;-68
2023/07/09 19:12:32;;;;;;;6.20;4.93;;;29.00;66.20;;;29.92;36.92;98050.34;10340103;28;20226;-68
2023/07/09 19:17:35;;;;;;;7.28;5.15;;;28.70;65.90;;;29.83;35.61;98046.09;10339868;28;20226;-68
2023/07/09 19:22:38;;;;;;;6.20;4.50;;;28.60;64.80;;;29.62;36.96;98041.19;10342223;28;20291;-68
2023/07/09 19:27:43;;;;;;;5.90;4.70;;;28.40;67.20;;;29.30;37.78;98049.56;10356862;28;20225;-68
2023/07/09 19:32:50;;;;;;;5.43;4.57;;;28.10;67.80;;;28.98;38.28;98056.97;10345889;28;20725;-68
2023/07/09 19:37:54;;;;;;;6.38;4.82;;;27.80;67.90;;;28.72;37.90;98056.47;10352771;28;20245;-68
2023/07/09 19:42:59;;;;;;;5.90;4.50;;;27.60;67.50;;;28.53;38.54;98071.63;10339296;28;20544;-68
2023/07/09 19:48:03;;;;;;;5.45;4.63;;;27.40;68.40;;;28.39;39.01;98078.75;10349736;28;20225;-68
2023/07/09 19:53:19;;;;;;;6.30;5.10;;;27.20;69.00;;;28.12;38.92;98070.22;10351902;28;20240;-68
2023/07/09 19:58:24;;;;;;;6.97;5.03;;;27.00;68.80;;;27.83;38.92;98076.63;10337292;28;20239;-68
2023/07/09 20:03:30;;;;;;;6.68;4.63;;;26.80;68.80;;;27.76;39.03;98084.56;10346382;28;20740;-68
2023/07/09 20:08:34;;;;;;;5.90;4.72;;;26.70;69.20;;;27.64;40.18;98077.63;10351947;28;20221;-68
2023/07/09 20:13:38;;;;;;;6.32;4.97;;;26.50;70.60;;;27.47;40.40;98079.50;10348044;28;20230;-68
2023/07/09 20:18:41;;;;;;;6.43;4.68;;;26.40;71.20;;;27.23;41.20;98076.16;10344124;28;21035;-67
2023/07/09 20:23:44;;;;;;;5.45;4.60;;;26.10;71.80;;;27.11;41.09;98081.44;10359971;28;20236;-68
2023/07/09 20:28:49;;;;;;;5.40;4.70;;;25.90;72.30;;;26.88;42.21;98089.44;10355114;28;20230;-68
2023/07/09 20:34:01;;;;;;;6.57;4.75;;;25.80;74.30;;;26.72;42.91;98089.47;10358664;28;20836;-68
2023/07/09 20:39:11;;;;;;;5.13;4.63;;;25.60;75.10;;;26.49;43.45;98084.28;10360717;28;20377;-67
2023/07/09 20:44:20;;;;;;;5.30;4.80;;;25.40;75.40;;;26.28;44.37;98086.97;10362380;28;20237;-67
2023/07/09 20:49:29;;;;;;;7.15;5.13;;;25.20;76.70;;;26.13;44.25;98087.84;10363354;28;20222;-68
2023/07/09 20:54:32;;;;;;;6.07;5.20;;;25.00;77.40;;;25.96;44.56;98084.38;10355721;28;20245;-67
2023/07/09 20:59:36;;;;;;;6.50;4.95;;;24.90;78.10;;;25.84;44.68;98086.13;10352077;28;20236;-67
2023/07/09 21:04:39;;;;;;;6.82;4.65;;;24.70;77.60;;;25.67;45.72;98077.38;10359512;28;20268;-67
2023/07/09 21:09:42;;;;;;;5.47;4.75;;;24.60;79.10;;;25.61;45.98;98079.97;10354392;28;20725;-67
2023/07/09 21:14:47;;;;;;;6.57;5.18;;;24.50;79.70;;;25.55;46.23;98088.72;10364036;28;20241;-67